Time;durP1;ratioP1;P1;durP2;ratioP2;P2;SDS_P1;SDS_P2;PMS_P1;PMS_P2;Temp;Humidity;BMP_temperature;BMP_pressure;BME280_temperature;BME280_humidity;BME280_pressure;Samples;Min_cycle;Max_cycle;Signal;HPM_P1;HPM_P2
2024/01/27 00:00:09;;;;;;;117.45;73.03;;;5.90;99.90;;;;;;4955821;29;20079;-74
2024/01/27 00:02:37;;;;;;;134.05;78.45;;;5.80;99.90;;;;;;4955526;29;20027;-74
2024/01/27 00:05:04;;;;;;;121.80;76.45;;;5.80;99.90;;;;;;4955529;29;20090;-74
2024/01/27 00:07:29;;;;;;;107.60;70.07;;;5.80;99.90;;;;;;4955675;29;20039;-73
2024/01/27 00:09:56;;;;;;;108.70;68.18;;;5.80;99.90;;;;;;4947725;29;20130;-73
2024/01/27 00:12:22;;;;;;;94.57;61.00;;;5.80;99.90;;;;;;4950389;29;20045;-75
2024/01/27 00:14:48;;;;;;;93.80;61.40;;;5.70;99.90;;;;;;4954778;28;20031;-74
2024/01/27 00:17:14;;;;;;;98.88;58.38;;;5.70;99.90;;;;;;4955213;29;20415;-73
2024/01/27 00:19:39;;;;;;;89.70;59.78;;;5.70;99.90;;;;;;4955061;29;20618;-75
2024/01/27 00:22:06;;;;;;;87.82;53.50;;;5.70;99.90;;;;;;4955352;29;20062;-74
2024/01/27 00:24:32;;;;;;;86.35;52.70;;;5.80;99.90;;;;;;4954819;29;20026;-75
2024/01/27 00:26:58;;;;;;;83.90;53.42;;;5.70;99.90;;;;;;4937879;29;20055;-74
2024/01/27 00:29:24;;;;;;;71.38;42.17;;;5.70;99.90;;;;;;4955104;29;20079;-73
2024/01/27 00:31:50;;;;;;;60.30;37.10;;;5.70;99.90;;;;;;4955304;29;20402;-75
2024/01/27 00:34:17;;;;;;;60.90;34.92;;;5.70;99.90;;;;;;4954844;29;20035;-76
2024/01/27 00:36:48;;;;;;;56.60;32.92;;;5.70;99.90;;;;;;4955019;29;20042;-74
2024/01/27 00:39:15;;;;;;;52.60;32.25;;;5.70;99.90;;;;;;4954750;29;20024;-75
2024/01/27 00:41:41;;;;;;;52.80;31.63;;;5.80;99.90;;;;;;4954903;29;20031;-78
2024/01/27 00:44:07;;;;;;;55.35;32.88;;;5.80;99.90;;;;;;4955112;29;20099;-74
2024/01/27 00:46:33;;;;;;;60.28;35.22;;;5.90;99.90;;;;;;4954610;29;20126;-73
2024/01/27 00:48:59;;;;;;;69.50;47.45;;;5.90;99.90;;;;;;4954804;29;20031;-74
2024/01/27 00:51:25;;;;;;;81.03;51.75;;;5.80;99.90;;;;;;4954657;29;20427;-74
2024/01/27 00:53:51;;;;;;;70.60;44.50;;;5.80;99.90;;;;;;4954782;29;20405;-74
2024/01/27 00:56:17;;;;;;;63.83;38.63;;;5.80;99.90;;;;;;4954144;29;20035;-76
2024/01/27 00:58:42;;;;;;;60.65;37.10;;;5.80;99.90;;;;;;4954424;29;20015;-76
2024/01/27 01:01:08;;;;;;;63.08;39.03;;;5.80;99.90;;;;;;4953514;29;20070;-74
2024/01/27 01:03:34;;;;;;;55.88;35.92;;;5.70;99.90;;;;;;4952650;29;20047;-75
2024/01/27 01:06:00;;;;;;;70.03;43.05;;;5.70;99.90;;;;;;4954624;29;20115;-76
2024/01/27 01:08:26;;;;;;;79.85;48.88;;;5.60;99.90;;;;;;4954142;29;20031;-74
2024/01/27 01:10:52;;;;;;;82.05;51.92;;;5.50;99.90;;;;;;4953801;29;20083;-74
2024/01/27 01:13:18;;;;;;;79.53;53.75;;;5.50;99.90;;;;;;4953475;29;20057;-75
2024/01/27 01:15:44;;;;;;;91.50;56.00;;;5.40;99.90;;;;;;4953832;29;20024;-74
2024/01/27 01:18:10;;;;;;;78.93;50.95;;;5.30;99.90;;;;;;4935969;29;20106;-77
2024/01/27 01:20:35;;;;;;;81.13;49.33;;;5.20;99.90;;;;;;4953497;29;20027;-75
2024/01/27 01:23:01;;;;;;;79.20;49.38;;;5.20;99.90;;;;;;4953212;29;20054;-74
2024/01/27 01:25:27;;;;;;;84.07;51.05;;;5.20;99.90;;;;;;4953161;28;20435;-75
2024/01/27 01:27:53;;;;;;;81.03;49.58;;;5.30;99.90;;;;;;4952924;29;20031;-74
2024/01/27 01:30:19;;;;;;;75.35;48.00;;;5.30;99.90;;;;;;4953460;29;20439;-74
2024/01/27 01:32:45;;;;;;;81.95;49.58;;;5.40;99.90;;;;;;4953612;29;20487;-74
2024/01/27 01:35:11;;;;;;;71.85;45.92;;;5.40;99.90;;;;;;4953357;29;20027;-74
2024/01/27 01:37:37;;;;;;;76.10;48.53;;;5.50;99.90;;;;;;4953326;29;20054;-74
2024/01/27 01:40:03;;;;;;;71.60;48.75;;;5.60;99.90;;;;;;4952966;29;20460;-74
2024/01/27 01:42:29;;;;;;;85.38;53.42;;;5.60;99.90;;;;;;4953102;29;20123;-77
2024/01/27 01:44:55;;;;;;;87.47;53.45;;;5.60;99.90;;;;;;4953429;29;20102;-76
2024/01/27 01:47:24;;;;;;;82.78;51.38;;;5.70;99.90;;;;;;4952934;29;20121;-74
2024/01/27 01:49:50;;;;;;;82.18;53.63;;;5.70;99.90;;;;;;4952784;29;20420;-77
2024/01/27 01:52:19;;;;;;;72.82;50.13;;;5.70;99.90;;;;;;4952947;29;20559;-73
2024/01/27 01:54:50;;;;;;;94.45;63.20;;;5.70;99.90;;;;;;4952747;29;20036;-76
2024/01/27 01:57:16;;;;;;;102.35;69.25;;;5.60;99.90;;;;;;4936080;29;20082;-74
2024/01/27 01:59:42;;;;;;;72.15;47.92;;;5.60;99.90;;;;;;4952840;29;20102;-76
2024/01/27 02:02:09;;;;;;;62.42;39.80;;;5.40;99.90;;;;;;4952999;29;20031;-73
2024/01/27 02:04:45;;;;;;;61.08;38.45;;;5.30;99.90;;;;;;4953061;29;20023;-74
2024/01/27 02:07:12;;;;;;;55.95;38.67;;;5.40;99.90;;;;;;4952962;29;20364;-75
2024/01/27 02:09:38;;;;;;;54.55;34.38;;;5.50;99.90;;;;;;4910497;29;1235675;-73
2024/01/27 02:12:05;;;;;;;53.03;34.00;;;5.60;99.90;;;;;;4953505;29;20031;-73
2024/01/27 02:14:30;;;;;;;52.58;32.45;;;5.60;99.90;;;;;;4953591;29;20451;-76
2024/01/27 02:16:57;;;;;;;43.38;27.42;;;5.60;99.90;;;;;;4954005;29;20046;-75
2024/01/27 02:19:23;;;;;;;32.88;22.45;;;5.70;99.90;;;;;;4953122;29;20027;-77
2024/01/27 02:21:50;;;;;;;34.88;20.30;;;5.80;99.90;;;;;;4953818;29;20090;-74
2024/01/27 02:24:16;;;;;;;34.90;17.65;;;6.00;99.90;;;;;;4936101;29;20427;-74
2024/01/27 02:26:42;;;;;;;28.02;14.77;;;6.10;99.90;;;;;;4936167;29;20031;-74
2024/01/27 02:29:07;;;;;;;23.35;12.77;;;6.30;99.90;;;;;;4953311;29;20035;-77
2024/01/27 02:31:33;;;;;;;26.70;12.20;;;6.40;99.90;;;;;;4953431;29;20035;-75
2024/01/27 02:33:59;;;;;;;22.33;11.50;;;6.50;99.90;;;;;;4953456;29;20043;-72
2024/01/27 02:36:25;;;;;;;25.95;9.98;;;6.60;99.90;;;;;;4953193;29;20038;-72
2024/01/27 02:38:51;;;;;;;19.75;8.43;;;6.70;99.90;;;;;;4956357;28;20043;-74
2024/01/27 02:41:17;;;;;;;17.80;8.95;;;6.80;99.90;;;;;;4957052;29;20027;-73
2024/01/27 02:43:43;;;;;;;17.98;8.57;;;6.80;99.90;;;;;;4957344;29;20027;-74
2024/01/27 02:46:11;;;;;;;15.70;7.60;;;6.90;99.90;;;;;;4957019;29;20039;-72
2024/01/27 02:48:42;;;;;;;16.10;6.47;;;6.90;99.90;;;;;;4957114;29;20022;-73
2024/01/27 02:51:08;;;;;;;11.60;5.78;;;7.00;99.90;;;;;;4957245;29;20038;-76
2024/01/27 02:53:34;;;;;;;12.50;5.85;;;7.00;99.90;;;;;;4956881;29;20023;-72
2024/01/27 02:56:00;;;;;;;10.82;5.25;;;7.00;99.90;;;;;;4957089;29;20498;-75
2024/01/27 02:58:26;;;;;;;10.85;5.70;;;7.00;99.90;;;;;;4956848;29;20042;-72
2024/01/27 03:00:51;;;;;;;12.40;4.70;;;7.10;99.90;;;;;;4955873;29;20035;-75
2024/01/27 03:03:18;;;;;;;10.38;5.15;;;7.20;99.90;;;;;;4956670;29;20063;-75
2024/01/27 03:05:44;;;;;;;12.30;5.50;;;7.30;99.90;;;;;;4956677;29;20062;-75
2024/01/27 03:08:10;;;;;;;10.00;4.82;;;7.20;99.90;;;;;;4956423;29;20079;-74
2024/01/27 03:10:36;;;;;;;13.50;5.45;;;7.30;99.90;;;;;;4939425;29;20060;-73
2024/01/27 03:13:02;;;;;;;12.73;4.60;;;7.30;99.90;;;;;;4956599;29;20055;-72
2024/01/27 03:15:28;;;;;;;15.10;5.18;;;7.30;99.90;;;;;;4956931;29;20038;-73
2024/01/27 03:17:54;;;;;;;12.43;5.65;;;7.20;99.90;;;;;;4956172;29;20016;-73
2024/01/27 03:20:20;;;;;;;13.27;6.60;;;7.20;99.90;;;;;;4956366;29;20036;-75
2024/01/27 03:22:46;;;;;;;14.98;6.85;;;7.20;99.90;;;;;;4956069;29;20020;-74
2024/01/27 03:25:12;;;;;;;9.30;4.22;;;7.10;99.90;;;;;;4956427;29;20102;-74
2024/01/27 03:27:38;;;;;;;7.68;4.50;;;7.00;99.90;;;;;;4956004;29;20101;-74
2024/01/27 03:30:04;;;;;;;8.63;4.00;;;6.90;99.90;;;;;;4956293;29;20365;-74
2024/01/27 03:32:33;;;;;;;8.10;3.88;;;6.90;99.90;;;;;;4956389;29;20115;-74
2024/01/27 03:35:00;;;;;;;11.88;5.30;;;6.90;99.90;;;;;;4955842;29;20035;-75
2024/01/27 03:37:26;;;;;;;9.27;4.70;;;6.90;99.90;;;;;;4956034;29;20077;-73
2024/01/27 03:39:52;;;;;;;11.85;4.72;;;6.80;99.90;;;;;;4956039;29;20023;-74
2024/01/27 03:42:18;;;;;;;12.95;4.97;;;6.80;99.90;;;;;;4956212;29;20118;-74
2024/01/27 03:44:43;;;;;;;14.60;5.75;;;6.80;99.90;;;;;;4956045;29;20031;-73
2024/01/27 03:47:09;;;;;;;13.27;6.53;;;6.70;99.90;;;;;;4955806;29;20431;-75
2024/01/27 03:49:35;;;;;;;13.70;7.05;;;6.60;99.90;;;;;;4954315;28;20023;-75
2024/01/27 03:52:01;;;;;;;17.23;7.85;;;6.50;99.90;;;;;;4955685;29;20423;-74
2024/01/27 03:54:27;;;;;;;12.25;7.30;;;6.40;99.90;;;;;;4956235;29;20161;-74
2024/01/27 03:56:53;;;;;;;13.80;7.07;;;6.20;99.90;;;;;;4955451;29;20027;-76
2024/01/27 03:59:19;;;;;;;16.48;7.93;;;6.20;99.90;;;;;;4954799;28;20047;-75
2024/01/27 04:01:45;;;;;;;16.17;7.25;;;6.10;99.90;;;;;;4955352;29;20015;-75
2024/01/27 04:04:11;;;;;;;17.35;8.38;;;6.10;99.90;;;;;;4955957;29;20478;-74
2024/01/27 04:06:38;;;;;;;14.75;7.63;;;6.00;99.90;;;;;;4955289;29;20518;-75
2024/01/27 04:09:08;;;;;;;19.27;7.43;;;5.90;99.90;;;;;;4956023;28;20027;-74
2024/01/27 04:11:36;;;;;;;12.88;6.75;;;5.90;99.90;;;;;;4970271;28;20569;-76
2024/01/27 04:14:03;;;;;;;17.15;6.55;;;5.90;99.90;;;;;;4955556;29;20058;-77
2024/01/27 04:16:29;;;;;;;10.88;5.18;;;5.90;99.90;;;;;;4956133;29;20387;-75
2024/01/27 04:18:55;;;;;;;12.25;5.78;;;5.90;99.90;;;;;;4938229;29;20035;-75
2024/01/27 04:21:21;;;;;;;11.60;5.72;;;5.80;99.90;;;;;;4957723;28;20039;-75
2024/01/27 04:23:47;;;;;;;12.00;4.93;;;5.80;99.90;;;;;;4951985;28;20019;-76
2024/01/27 04:26:13;;;;;;;9.10;4.47;;;5.80;99.90;;;;;;4953665;29;20041;-74
2024/01/27 04:28:39;;;;;;;12.00;4.05;;;5.90;99.90;;;;;;4963289;28;20030;-75
2024/01/27 04:31:05;;;;;;;11.48;5.20;;;5.90;99.90;;;;;;4955803;28;20063;-74
2024/01/27 04:33:31;;;;;;;9.90;4.03;;;5.90;99.90;;;;;;4938149;29;20031;-74
2024/01/27 04:35:57;;;;;;;5.10;3.13;;;5.90;99.90;;;;;;4954906;29;20427;-73
2024/01/27 04:38:23;;;;;;;8.55;3.70;;;5.90;99.90;;;;;;4955007;29;20538;-73
2024/01/27 04:40:50;;;;;;;12.88;3.42;;;5.90;99.90;;;;;;4954779;29;20031;-73
2024/01/27 04:43:17;;;;;;;8.73;3.45;;;5.90;99.90;;;;;;4954845;29;20479;-74
2024/01/27 04:45:44;;;;;;;11.18;3.97;;;5.80;99.90;;;;;;4954432;29;20463;-75
2024/01/27 04:48:10;;;;;;;10.70;3.78;;;5.90;99.90;;;;;;4955183;29;20035;-74
2024/01/27 04:50:36;;;;;;;7.72;3.40;;;5.80;99.90;;;;;;4954576;29;20027;-73
2024/01/27 04:53:02;;;;;;;7.25;3.90;;;5.80;99.90;;;;;;4954888;29;20031;-74
2024/01/27 04:55:28;;;;;;;7.35;2.97;;;5.80;99.90;;;;;;4954762;29;20437;-75
2024/01/27 04:57:54;;;;;;;8.45;3.33;;;5.80;99.90;;;;;;4954565;29;20027;-74
2024/01/27 05:00:20;;;;;;;6.72;3.00;;;5.80;99.90;;;;;;4954303;28;20050;-72
2024/01/27 05:02:46;;;;;;;4.93;2.95;;;5.80;99.90;;;;;;4953423;29;20464;-76
2024/01/27 05:05:12;;;;;;;4.72;2.65;;;5.80;99.90;;;;;;4954616;29;20491;-71
2024/01/27 05:07:39;;;;;;;6.00;2.67;;;5.90;99.90;;;;;;4953269;29;20055;-73
2024/01/27 05:10:05;;;;;;;7.97;2.88;;;5.90;99.90;;;;;;4954201;29;20063;-72
2024/01/27 05:12:39;;;;;;;7.30;3.35;;;5.80;99.90;;;;;;4954415;29;20035;-71
2024/01/27 05:15:05;;;;;;;5.72;3.35;;;5.90;99.90;;;;;;4942889;29;20019;-72
2024/01/27 05:17:31;;;;;;;5.32;2.42;;;6.00;99.90;;;;;;4954526;29;20058;-74
2024/01/27 05:19:58;;;;;;;7.43;2.40;;;5.90;99.90;;;;;;4954555;29;20047;-75
2024/01/27 05:22:24;;;;;;;6.75;2.50;;;5.90;99.90;;;;;;4948318;29;20083;-76
2024/01/27 05:24:50;;;;;;;4.63;2.30;;;5.80;99.90;;;;;;4954275;29;20027;-72
2024/01/27 05:27:16;;;;;;;6.43;2.47;;;5.80;99.90;;;;;;4953806;29;20066;-71
2024/01/27 05:29:41;;;;;;;5.10;1.83;;;5.80;99.90;;;;;;4953519;29;20042;-74
2024/01/27 05:32:08;;;;;;;7.70;2.58;;;5.80;99.90;;;;;;4954607;29;20027;-73
2024/01/27 05:34:34;;;;;;;7.43;3.35;;;5.70;99.90;;;;;;4954396;29;20364;-71
2024/01/27 05:36:59;;;;;;;6.22;3.25;;;5.70;99.90;;;;;;4954222;29;20063;-76
2024/01/27 05:39:25;;;;;;;9.13;3.85;;;5.60;99.90;;;;;;4954145;29;20034;-73
2024/01/27 05:41:51;;;;;;;5.20;2.85;;;5.50;99.90;;;;;;4954291;29;20067;-73
2024/01/27 05:44:17;;;;;;;6.10;2.60;;;5.60;99.90;;;;;;4953879;29;20030;-71
2024/01/27 05:46:43;;;;;;;10.68;4.15;;;5.50;99.90;;;;;;4954362;29;20118;-72
2024/01/27 05:49:09;;;;;;;8.40;3.85;;;5.40;99.90;;;;;;4954243;29;20076;-74
2024/01/27 05:51:34;;;;;;;8.07;3.70;;;5.40;99.90;;;;;;4954201;29;20042;-72
2024/01/27 05:54:00;;;;;;;8.30;4.28;;;5.40;99.90;;;;;;4954224;29;20050;-74
2024/01/27 05:56:26;;;;;;;7.75;3.70;;;5.30;99.90;;;;;;4954032;29;20043;-74
2024/01/27 05:58:52;;;;;;;6.07;2.75;;;5.30;99.90;;;;;;4941533;29;20023;-74
2024/01/27 06:01:19;;;;;;;6.40;3.63;;;5.30;99.90;;;;;;4953652;29;20058;-75
2024/01/27 06:03:45;;;;;;;9.27;4.00;;;5.20;99.90;;;;;;4942264;29;20494;-75
2024/01/27 06:06:11;;;;;;;6.72;3.13;;;5.20;99.90;;;;;;4954304;29;20035;-75
2024/01/27 06:08:41;;;;;;;7.22;3.28;;;5.20;99.90;;;;;;4954074;29;20032;-75
2024/01/27 06:11:14;;;;;;;6.05;3.17;;;5.10;99.90;;;;;;4937564;29;20465;-73
2024/01/27 06:13:40;;;;;;;6.82;2.97;;;5.10;99.90;;;;;;4958779;28;20126;-74
2024/01/27 06:16:08;;;;;;;8.70;3.40;;;5.00;99.90;;;;;;4960477;29;20031;-74
2024/01/27 06:18:35;;;;;;;4.90;2.97;;;5.00;99.90;;;;;;4958923;29;20027;-77
2024/01/27 06:21:03;;;;;;;6.88;3.40;;;5.00;99.90;;;;;;4951404;29;20027;-74
2024/01/27 06:23:29;;;;;;;7.38;3.42;;;5.00;99.90;;;;;;4954648;29;20027;-75
2024/01/27 06:25:54;;;;;;;8.15;3.88;;;5.10;99.90;;;;;;4960171;29;20093;-75
2024/01/27 06:28:23;;;;;;;10.55;4.72;;;5.20;99.90;;;;;;4960015;28;20040;-74
2024/01/27 06:30:48;;;;;;;9.68;4.32;;;5.20;99.90;;;;;;4959109;28;20035;-74
2024/01/27 06:33:14;;;;;;;9.10;4.18;;;5.30;99.90;;;;;;4960010;29;20115;-77
2024/01/27 06:35:40;;;;;;;10.60;4.50;;;5.30;99.90;;;;;;4959828;29;20031;-75
2024/01/27 06:38:06;;;;;;;12.68;5.20;;;5.40;99.90;;;;;;4960010;29;20427;-80
2024/01/27 06:40:32;;;;;;;11.80;6.28;;;5.50;99.90;;;;;;4960010;29;20455;-73
2024/01/27 06:42:58;;;;;;;16.75;7.53;;;5.50;99.90;;;;;;4960003;29;20027;-75
2024/01/27 06:45:24;;;;;;;13.23;5.07;;;5.60;99.90;;;;;;4960087;29;20031;-75
2024/01/27 06:47:50;;;;;;;10.98;4.93;;;5.60;99.90;;;;;;4959892;29;20042;-77
2024/01/27 06:50:16;;;;;;;7.65;4.15;;;5.70;99.90;;;;;;4959858;28;20035;-75
2024/01/27 06:52:41;;;;;;;12.07;5.63;;;5.80;99.90;;;;;;4959993;29;20020;-74
2024/01/27 06:55:10;;;;;;;13.77;5.50;;;5.90;99.90;;;;;;4958809;28;20059;-77
2024/01/27 06:57:36;;;;;;;9.73;3.83;;;5.90;99.90;;;;;;4959348;29;20035;-75
2024/01/27 07:00:08;;;;;;;9.27;4.20;;;6.00;99.90;;;;;;4959546;29;20381;-74
2024/01/27 07:02:34;;;;;;;13.10;5.05;;;6.10;99.90;;;;;;4960022;28;20046;-75
2024/01/27 07:04:59;;;;;;;9.82;4.07;;;6.20;99.90;;;;;;4959125;29;20383;-73
2024/01/27 07:07:27;;;;;;;9.63;3.78;;;6.20;99.90;;;;;;4958378;28;20070;-78
2024/01/27 07:09:54;;;;;;;7.22;3.58;;;6.40;99.90;;;;;;4958814;29;20047;-79
2024/01/27 07:12:20;;;;;;;12.60;4.45;;;6.40;99.90;;;;;;4959287;28;20046;-73
2024/01/27 07:14:46;;;;;;;7.05;3.67;;;6.50;99.90;;;;;;4959839;29;20034;-74
2024/01/27 07:17:13;;;;;;;8.43;3.55;;;6.50;99.90;;;;;;4958420;28;20031;-73
2024/01/27 07:19:39;;;;;;;9.02;3.97;;;6.50;99.90;;;;;;4959766;29;20387;-73
2024/01/27 07:22:05;;;;;;;7.15;2.92;;;6.60;99.90;;;;;;4958952;29;20039;-76
2024/01/27 07:24:31;;;;;;;7.70;2.88;;;6.60;99.90;;;;;;4956007;28;20542;-75
2024/01/27 07:26:59;;;;;;;7.05;2.53;;;6.70;99.90;;;;;;4956036;29;20063;-74
2024/01/27 07:29:25;;;;;;;3.00;1.83;;;6.80;99.90;;;;;;4955744;29;20027;-74
2024/01/27 07:31:51;;;;;;;9.10;3.17;;;6.80;99.90;;;;;;4955994;29;20049;-72
2024/01/27 07:34:17;;;;;;;3.85;1.88;;;6.90;99.90;;;;;;4956152;29;20028;-75
2024/01/27 07:36:44;;;;;;;2.35;1.30;;;6.90;99.90;;;;;;4956444;29;20102;-73
2024/01/27 07:39:09;;;;;;;5.43;1.67;;;7.00;99.90;;;;;;4955390;29;20490;-75
2024/01/27 07:41:35;;;;;;;2.83;1.40;;;7.00;99.90;;;;;;4956528;29;20067;-74
2024/01/27 07:44:11;;;;;;;3.03;1.90;;;7.00;99.90;;;;;;4955981;29;20034;-75
2024/01/27 07:46:38;;;;;;;1.88;1.30;;;7.10;99.90;;;;;;4956120;29;20384;-72
2024/01/27 07:49:06;;;;;;;3.85;1.95;;;7.10;99.90;;;;;;4939218;29;20086;-73
2024/01/27 07:51:40;;;;;;;2.50;1.30;;;7.20;99.90;;;;;;4956195;29;20467;-74
2024/01/27 07:54:08;;;;;;;5.32;1.58;;;7.20;99.90;;;;;;4919654;29;20126;-80
2024/01/27 07:56:37;;;;;;;2.60;1.30;;;7.20;99.90;;;;;;4949380;29;20119;-74
2024/01/27 07:59:03;;;;;;;11.18;2.03;;;7.20;99.90;;;;;;4956118;29;20067;-73
2024/01/27 08:01:29;;;;;;;3.83;1.60;;;7.20;99.90;;;;;;4955514;29;20031;-75
2024/01/27 08:03:55;;;;;;;4.18;1.42;;;7.30;99.90;;;;;;4955835;29;20027;-74
2024/01/27 08:06:30;;;;;;;4.07;1.67;;;7.30;99.90;;;;;;4964407;28;20177;-78
2024/01/27 08:08:56;;;;;;;3.47;1.40;;;7.40;99.90;;;;;;4955196;29;20038;-74
2024/01/27 08:11:22;;;;;;;4.18;1.65;;;7.40;99.90;;;;;;4955431;29;20118;-79
2024/01/27 08:13:48;;;;;;;5.82;2.42;;;7.50;99.90;;;;;;4955849;29;20058;-73
2024/01/27 08:16:14;;;;;;;2.33;1.40;;;7.60;99.90;;;;;;4956159;28;20030;-76
2024/01/27 08:18:47;;;;;;;5.30;1.67;;;7.60;99.90;;;;;;4955646;29;20566;-74
2024/01/27 08:21:13;;;;;;;5.43;3.00;;;7.70;99.90;;;;;;4922211;29;20031;-75
2024/01/27 08:23:39;;;;;;;4.80;2.22;;;7.70;99.90;;;;;;4955743;29;20364;-76
2024/01/27 08:26:05;;;;;;;6.00;2.17;;;7.70;99.90;;;;;;4958832;28;20057;-77
2024/01/27 08:28:35;;;;;;;2.58;1.23;;;7.70;99.90;;;;;;4955632;28;20075;-74
2024/01/27 08:31:04;;;;;;;4.28;1.63;;;7.80;99.50;;;;;;4937805;29;20027;-74
2024/01/27 08:33:30;;;;;;;5.25;1.77;;;7.80;99.20;;;;;;4955479;29;20038;-79
2024/01/27 08:35:56;;;;;;;2.70;1.52;;;7.90;99.90;;;;;;4954451;28;20034;-74
2024/01/27 08:38:22;;;;;;;5.20;1.60;;;7.90;99.50;;;;;;4955163;29;20035;-76
2024/01/27 08:40:48;;;;;;;1.77;0.77;;;7.90;99.90;;;;;;4955039;29;20720;-73
2024/01/27 08:43:14;;;;;;;2.75;1.25;;;7.90;99.50;;;;;;4955361;29;20035;-76
2024/01/27 08:45:40;;;;;;;2.65;1.48;;;8.00;99.90;;;;;;4955163;29;20050;-74
2024/01/27 08:48:06;;;;;;;1.73;0.95;;;8.00;99.90;;;;;;4955039;29;20074;-77
2024/01/27 08:50:32;;;;;;;3.30;1.13;;;8.00;99.30;;;;;;4954780;29;20031;-75
2024/01/27 08:52:58;;;;;;;1.85;1.08;;;8.10;99.60;;;;;;4954650;29;20142;-76
2024/01/27 08:55:24;;;;;;;3.28;1.45;;;8.10;99.10;;;;;;4954781;29;20059;-76
2024/01/27 08:57:51;;;;;;;2.85;1.48;;;8.20;98.50;;;;;;4954847;29;20031;-77
2024/01/27 09:00:17;;;;;;;5.95;1.55;;;8.20;98.20;;;;;;4931896;29;20062;-79
2024/01/27 09:02:43;;;;;;;3.92;1.50;;;8.30;97.90;;;;;;4947182;29;20144;-78
2024/01/27 09:05:09;;;;;;;4.45;1.20;;;8.40;98.50;;;;;;4954586;29;20419;-76
2024/01/27 09:07:35;;;;;;;3.35;1.15;;;8.50;96.80;;;;;;4937401;29;20050;-78
2024/01/27 09:10:02;;;;;;;5.68;1.13;;;8.50;96.70;;;;;;4954220;29;20398;-74
2024/01/27 09:12:28;;;;;;;2.05;1.05;;;8.50;97.20;;;;;;4954693;29;20036;-73
2024/01/27 09:14:54;;;;;;;5.45;1.40;;;8.50;96.90;;;;;;4954332;29;20034;-74
2024/01/27 09:17:20;;;;;;;5.63;1.20;;;8.60;97.40;;;;;;4954558;29;20067;-77
2024/01/27 09:19:46;;;;;;;2.55;1.00;;;8.70;96.70;;;;;;4954585;29;20031;-74
2024/01/27 09:22:20;;;;;;;10.60;3.13;;;8.60;95.20;;;;;;4921970;29;20039;-75
2024/01/27 09:24:46;;;;;;;15.65;6.43;;;8.60;95.50;;;;;;4936551;29;20031;-77
2024/01/27 09:27:12;;;;;;;7.47;1.63;;;8.60;96.40;;;;;;4954509;29;20126;-75
2024/01/27 09:29:41;;;;;;;9.38;2.60;;;8.80;95.20;;;;;;4954288;29;20440;-76
2024/01/27 09:32:06;;;;;;;21.85;10.40;;;8.90;95.60;;;;;;4953888;29;20391;-75
2024/01/27 09:34:32;;;;;;;10.05;2.15;;;8.70;95.50;;;;;;4943274;29;20098;-75
2024/01/27 09:36:58;;;;;;;3.00;1.15;;;8.80;94.20;;;;;;4953996;29;20074;-75
2024/01/27 09:39:24;;;;;;;1.02;0.82;;;8.80;95.30;;;;;;4953967;29;20530;-77
2024/01/27 09:41:51;;;;;;;2.92;1.17;;;8.90;94.70;;;;;;4954053;29;20032;-78
2024/01/27 09:44:21;;;;;;;8.32;2.22;;;8.80;95.40;;;;;;4954391;29;20031;-77
2024/01/27 09:46:48;;;;;;;2.63;1.50;;;9.00;96.10;;;;;;4953232;28;20439;-77
2024/01/27 09:49:14;;;;;;;3.15;1.30;;;9.10;95.20;;;;;;4954092;29;20100;-75
2024/01/27 09:51:43;;;;;;;2.85;1.25;;;9.00;93.30;;;;;;4953760;29;20035;-74
2024/01/27 09:54:09;;;;;;;1.73;0.98;;;8.90;92.80;;;;;;4953904;29;20023;-75
2024/01/27 09:56:35;;;;;;;4.57;1.80;;;8.90;93.10;;;;;;4954051;29;20019;-76
2024/01/27 09:59:01;;;;;;;6.65;1.80;;;9.10;93.70;;;;;;4953584;29;20027;-73
2024/01/27 10:01:28;;;;;;;4.32;1.60;;;9.10;93.20;;;;;;4937799;28;20034;-72
2024/01/27 10:03:55;;;;;;;4.57;1.40;;;9.20;92.00;;;;;;4943550;29;20093;-78
2024/01/27 10:06:21;;;;;;;5.30;1.25;;;9.30;91.40;;;;;;4952658;29;20031;-77
2024/01/27 10:09:01;;;;;;;4.35;1.77;;;9.20;92.40;;;;;;4953434;29;20024;-72
2024/01/27 10:11:36;;;;;;;3.85;1.00;;;9.10;93.80;;;;;;4935375;29;20090;-74
2024/01/27 10:14:07;;;;;;;3.10;1.30;;;9.10;93.00;;;;;;4953558;29;20039;-75
2024/01/27 10:16:44;;;;;;;2.35;1.08;;;9.20;92.40;;;;;;4936849;29;20043;-73
2024/01/27 10:19:24;;;;;;;4.78;1.20;;;9.20;91.20;;;;;;4921057;29;20038;-76
2024/01/27 10:22:09;;;;;;;3.90;1.80;;;9.20;91.30;;;;;;4937803;29;20142;-74
2024/01/27 10:24:54;;;;;;;3.70;1.52;;;9.30;92.10;;;;;;4921148;29;20127;-76
2024/01/27 10:27:39;;;;;;;6.57;2.40;;;9.20;92.40;;;;;;4936339;29;20054;-76
2024/01/27 10:30:18;;;;;;;5.53;2.10;;;9.20;92.30;;;;;;4935066;29;20563;-74
2024/01/27 10:32:57;;;;;;;7.43;1.88;;;9.10;91.80;;;;;;4936448;29;20079;-74
2024/01/27 10:35:28;;;;;;;5.05;1.65;;;9.20;92.40;;;;;;4935902;29;20119;-73
2024/01/27 10:37:57;;;;;;;2.72;1.20;;;9.20;91.50;;;;;;4920503;29;20078;-74
2024/01/27 10:40:26;;;;;;;1.63;0.70;;;9.30;92.00;;;;;;4953131;29;20055;-72
2024/01/27 10:43:02;;;;;;;2.90;1.17;;;9.30;91.50;;;;;;4953857;29;20372;-75
2024/01/27 10:45:41;;;;;;;3.03;1.20;;;9.30;92.00;;;;;;4953484;29;20275;-77
2024/01/27 10:48:11;;;;;;;5.70;1.15;;;9.40;91.80;;;;;;4953181;29;20053;-74
2024/01/27 10:50:39;;;;;;;2.67;0.85;;;9.40;92.10;;;;;;4953306;29;20024;-73
2024/01/27 10:53:19;;;;;;;2.30;1.05;;;9.40;91.00;;;;;;4953143;29;20035;-73
2024/01/27 10:55:47;;;;;;;3.80;1.08;;;9.50;90.80;;;;;;4941850;29;20089;-73
2024/01/27 10:58:13;;;;;;;2.83;1.38;;;9.40;90.80;;;;;;4953852;28;20050;-74
2024/01/27 11:00:43;;;;;;;2.35;1.30;;;9.30;90.30;;;;;;4956822;29;20456;-76
2024/01/27 11:03:11;;;;;;;1.83;1.05;;;9.40;90.90;;;;;;4957243;29;20112;-73
2024/01/27 11:05:39;;;;;;;3.83;0.95;;;9.40;90.20;;;;;;4956617;29;20391;-77
2024/01/27 11:08:08;;;;;;;4.88;2.20;;;9.40;90.00;;;;;;4956626;29;20035;-73
2024/01/27 11:10:37;;;;;;;5.35;1.92;;;9.60;91.00;;;;;;4956643;29;20492;-77
2024/01/27 11:13:04;;;;;;;3.50;1.60;;;9.70;90.70;;;;;;4956219;29;20063;-78
2024/01/27 11:15:30;;;;;;;3.75;1.42;;;9.90;91.40;;;;;;4957203;29;20023;-74
2024/01/27 11:18:00;;;;;;;4.53;1.20;;;9.90;89.80;;;;;;4956480;29;20367;-76
2024/01/27 11:20:26;;;;;;;4.90;1.75;;;9.80;90.40;;;;;;4956683;29;20039;-76
2024/01/27 11:22:54;;;;;;;3.95;1.30;;;9.80;90.00;;;;;;4956362;29;20039;-78
2024/01/27 11:25:20;;;;;;;1.98;1.08;;;9.60;89.10;;;;;;4939455;29;20034;-75
2024/01/27 11:27:51;;;;;;;3.90;1.42;;;9.60;88.50;;;;;;4956222;29;20086;-75
2024/01/27 11:30:30;;;;;;;2.65;1.15;;;9.60;89.30;;;;;;4955042;28;20054;-76
2024/01/27 11:32:57;;;;;;;4.90;2.17;;;9.40;90.00;;;;;;4956493;29;20031;-77
2024/01/27 11:35:24;;;;;;;1.42;1.00;;;9.60;90.70;;;;;;4956293;29;20035;-78
2024/01/27 11:37:50;;;;;;;4.10;1.05;;;9.50;89.10;;;;;;4956487;29;20030;-74
2024/01/27 11:40:16;;;;;;;4.05;1.55;;;9.50;90.00;;;;;;4955907;29;20031;-75
2024/01/27 11:42:42;;;;;;;1.65;0.80;;;9.50;89.40;;;;;;4956252;29;20134;-76
2024/01/27 11:45:09;;;;;;;5.78;1.48;;;9.60;89.90;;;;;;4955798;29;20030;-74
2024/01/27 11:47:35;;;;;;;6.25;2.17;;;9.80;90.90;;;;;;4955549;29;20182;-77
2024/01/27 11:50:01;;;;;;;2.97;1.48;;;9.80;90.30;;;;;;4956093;29;20077;-76
2024/01/27 11:52:28;;;;;;;3.88;1.38;;;9.80;90.40;;;;;;4955857;29;20396;-77
2024/01/27 11:54:58;;;;;;;4.53;1.50;;;9.80;90.60;;;;;;4955992;29;20019;-76
2024/01/27 11:57:25;;;;;;;2.95;1.08;;;9.70;89.50;;;;;;4955664;29;20538;-74
2024/01/27 11:59:52;;;;;;;4.70;1.48;;;9.70;88.60;;;;;;4955744;29;20587;-76
2024/01/27 12:02:18;;;;;;;3.10;1.08;;;9.60;87.00;;;;;;4955646;29;20066;-74
2024/01/27 12:04:44;;;;;;;4.10;1.48;;;9.60;86.20;;;;;;4938877;29;20037;-75
2024/01/27 12:07:10;;;;;;;2.65;1.60;;;9.60;89.10;;;;;;4955170;29;20085;-75
2024/01/27 12:09:37;;;;;;;5.90;1.48;;;9.70;87.60;;;;;;4954483;28;20039;-73
2024/01/27 12:12:04;;;;;;;4.95;1.27;;;9.90;88.40;;;;;;4954968;29;20035;-72
2024/01/27 12:14:49;;;;;;;16.60;1.92;;;9.90;88.70;;;;;;4943118;29;20494;-74
2024/01/27 12:17:15;;;;;;;2.85;0.85;;;9.80;84.70;;;;;;4920236;29;20040;-79
2024/01/27 12:19:49;;;;;;;3.10;1.35;;;9.80;87.00;;;;;;4920197;29;20388;-78
2024/01/27 12:22:27;;;;;;;4.68;1.40;;;9.80;86.70;;;;;;4956431;29;20501;-77
2024/01/27 12:25:10;;;;;;;2.13;1.33;;;9.70;86.30;;;;;;4916983;29;20105;-75
2024/01/27 12:27:37;;;;;;;2.08;1.00;;;9.70;85.70;;;;;;4912948;29;20044;-75
2024/01/27 12:30:07;;;;;;;4.57;1.27;;;9.90;86.30;;;;;;4922022;29;20038;-73
2024/01/27 12:32:36;;;;;;;4.22;1.13;;;9.80;84.90;;;;;;4938958;29;20040;-72
2024/01/27 12:35:07;;;;;;;2.20;0.70;;;9.80;83.40;;;;;;4923408;29;20054;-71
2024/01/27 12:37:39;;;;;;;1.83;0.95;;;9.70;83.50;;;;;;4923082;29;20411;-71
2024/01/27 12:40:24;;;;;;;2.63;1.52;;;9.70;84.50;;;;;;4938289;29;20038;-73
2024/01/27 12:42:54;;;;;;;3.20;1.05;;;9.70;86.00;;;;;;4944587;29;20030;-79
2024/01/27 12:45:25;;;;;;;3.22;0.90;;;9.80;84.20;;;;;;4954506;29;20078;-73
2024/01/27 12:48:05;;;;;;;2.42;0.90;;;9.70;82.90;;;;;;4937759;29;20122;-72
2024/01/27 12:50:41;;;;;;;6.20;2.05;;;9.80;83.30;;;;;;4918768;29;20066;-73